Time;durP1;ratioP1;P1;durP2;ratioP2;P2;SDS_P1;SDS_P2;PMS_P1;PMS_P2;Temp;Humidity;BMP_temperature;BMP_pressure;BME280_temperature;BME280_humidity;BME280_pressure;Samples;Min_cycle;Max_cycle;Signal;HPM_P1;HPM_P2
2022/04/18 00:02:18;;;;;;;4.43;2.97;;;;;;;-139.48;100.00;61774.03;5034758;28;20513;-68
2022/04/18 00:05:02;;;;;;;4.63;2.38;;;;;;;-139.48;100.00;61774.03;5035557;28;20103;-69
2022/04/18 00:07:46;;;;;;;2.42;2.22;;;;;;;-139.48;100.00;61774.03;5007042;28;20052;-68
2022/04/18 00:10:30;;;;;;;3.65;2.42;;;;;;;-139.48;100.00;61774.03;5020866;28;20103;-68
2022/04/18 00:13:14;;;;;;;5.80;2.30;;;;;;;-139.48;100.00;61774.03;5035459;28;20544;-68
2022/04/18 00:15:58;;;;;;;3.78;2.50;;;;;;;-139.48;100.00;61774.03;5035352;28;20048;-68
2022/04/18 00:18:42;;;;;;;5.35;2.38;;;;;;;-139.48;100.00;61774.03;5006508;28;20118;-68
2022/04/18 00:21:26;;;;;;;3.15;2.20;;;;;;;-139.48;66.53;61774.03;5035215;28;20098;-68
2022/04/18 00:24:11;;;;;;;5.20;2.25;;;;;;;7.39;83.18;100851.38;5020237;28;20508;-68
2022/04/18 00:26:55;;;;;;;6.60;2.50;;;;;;;7.29;83.19;100848.53;5020105;28;20088;-69
2022/04/18 00:29:38;;;;;;;5.30;2.75;;;;;;;7.20;84.07;100843.88;5035448;28;20480;-68
2022/04/18 00:32:22;;;;;;;3.70;2.60;;;;;;;7.18;84.80;100832.53;5035000;28;20161;-69
2022/04/18 00:35:07;;;;;;;3.80;2.40;;;;;;;7.16;85.54;100837.09;5035078;28;20111;-68
2022/04/18 00:37:51;;;;;;;3.97;2.50;;;;;;;7.12;86.10;100830.34;5006138;28;20416;-68
2022/04/18 00:40:35;;;;;;;4.63;2.58;;;;;;;7.16;85.86;100833.63;5019860;28;20417;-68
2022/04/18 00:43:37;;;;;;;3.40;2.40;;;;;;;7.21;85.11;100827.03;5020106;28;20047;-68
2022/04/18 00:46:21;;;;;;;4.65;2.30;;;;;;;7.21;86.11;100826.19;5034815;28;20412;-68
2022/04/18 00:49:05;;;;;;;2.60;2.40;;;;;;;7.15;87.67;100826.59;5019725;28;20579;-68
2022/04/18 00:51:49;;;;;;;4.07;2.38;;;;;;;7.11;88.90;100818.03;5034715;28;20524;-68
2022/04/18 00:54:33;;;;;;;2.92;2.17;;;;;;;7.09;88.46;100817.28;5035044;28;20040;-68
2022/04/18 00:57:17;;;;;;;3.47;2.45;;;;;;;7.09;88.51;100811.97;5019619;28;20047;-68
2022/04/18 01:00:01;;;;;;;3.28;2.33;;;;;;;7.06;87.89;100811.38;5034556;28;20468;-70
2022/04/18 01:02:45;;;;;;;4.68;2.80;;;;;;;7.03;88.15;100812.44;5019472;28;20168;-70
2022/04/18 01:05:28;;;;;;;6.00;2.83;;;;;;;7.00;88.52;100802.06;5019722;28;20048;-70
2022/04/18 01:08:13;;;;;;;5.20;2.72;;;;;;;6.91;89.75;100808.00;5019376;28;20053;-69
2022/04/18 01:10:57;;;;;;;4.32;2.28;;;;;;;6.81;90.84;100799.00;5019444;28;20052;-70
2022/04/18 01:13:45;;;;;;;3.67;2.33;;;;;;;6.77;91.26;100805.44;5019578;28;20612;-69
2022/04/18 01:16:29;;;;;;;5.97;2.60;;;;;;;6.75;92.29;100798.59;5019519;28;20068;-69
2022/04/18 01:19:13;;;;;;;7.97;2.20;;;;;;;6.71;93.52;100797.97;5005580;28;20056;-70
2022/04/18 01:21:58;;;;;;;2.92;2.40;;;;;;;6.73;94.13;100792.53;5020175;28;20474;-69
2022/04/18 01:30:47;;;;;;;2.90;2.50;;;;;;;6.53;98.11;100783.34;5033791;28;20060;-70
2022/04/18 01:33:31;;;;;;;4.78;2.40;;;;;;;6.47;100.00;100786.41;5034197;28;20083;-69
2022/04/18 01:36:16;;;;;;;5.65;2.72;;;;;;;6.44;100.00;100781.31;5034042;28;20048;-70
2022/04/18 01:39:00;;;;;;;6.22;2.72;;;;;;;6.38;100.00;100778.25;5019374;28;20044;-69
2022/04/18 01:41:44;;;;;;;3.75;2.63;;;;;;;6.28;100.00;100780.66;5018705;28;20095;-69
2022/04/18 01:44:27;;;;;;;3.35;2.85;;;;;;;6.23;100.00;100781.94;5018979;28;20532;-69
2022/04/18 01:47:11;;;;;;;3.40;2.53;;;;;;;6.21;100.00;100783.84;5018730;28;20555;-69
2022/04/18 01:49:55;;;;;;;5.57;2.88;;;;;;;6.20;100.00;100777.72;5033888;28;20049;-69
2022/04/18 01:52:39;;;;;;;4.47;2.80;;;;;;;6.18;100.00;100776.13;5033505;28;20140;-69
2022/04/18 01:55:23;;;;;;;3.58;2.65;;;;;;;6.16;100.00;100775.38;5018673;28;20072;-69
2022/04/18 01:58:08;;;;;;;5.22;2.85;;;;;;;6.17;100.00;100777.06;5018824;28;20191;-69
2022/04/18 02:00:52;;;;;;;3.83;2.70;;;;;;;6.14;100.00;100775.47;5018561;28;20179;-70
2022/04/18 02:03:40;;;;;;;3.40;2.72;;;;;;;6.12;100.00;100777.38;5004536;28;20520;-69
2022/04/18 02:06:24;;;;;;;3.42;2.42;;;;;;;6.08;100.00;100775.91;5033362;28;20413;-69
2022/04/18 02:09:08;;;;;;;7.22;3.13;;;;;;;6.08;100.00;100769.75;5018707;28;20099;-70
2022/04/18 02:11:52;;;;;;;7.38;2.88;;;;;;;6.06;100.00;100769.84;5018293;28;20056;-69
2022/04/18 02:14:36;;;;;;;3.17;2.55;;;;;;;6.05;100.00;100773.44;5018639;28;20099;-69
2022/04/18 02:17:20;;;;;;;4.70;2.80;;;;;;;6.05;100.00;100767.31;5033580;28;20044;-69
2022/04/18 02:20:05;;;;;;;4.90;3.20;;;;;;;6.07;100.00;100768.88;5033425;28;20102;-69
2022/04/18 02:22:49;;;;;;;4.53;2.72;;;;;;;5.99;100.00;100767.72;5018357;28;20044;-69
2022/04/18 02:25:33;;;;;;;3.95;2.78;;;;;;;5.95;100.00;100769.72;5017854;28;20099;-69
2022/04/18 02:28:17;;;;;;;6.30;2.92;;;;;;;5.89;100.00;100764.84;5018379;28;20133;-69
2022/04/18 02:31:02;;;;;;;4.40;2.78;;;;;;;5.88;100.00;100763.16;5033250;28;20128;-69
2022/04/18 02:33:45;;;;;;;7.07;3.28;;;;;;;5.82;100.00;100763.56;5018553;28;20052;-69
2022/04/18 02:36:29;;;;;;;7.72;3.95;;;;;;;5.71;100.00;100759.88;5018340;28;20056;-69
2022/04/18 02:39:13;;;;;;;5.32;2.90;;;;;;;5.72;100.00;100754.50;5033312;28;20115;-69
2022/04/18 02:41:57;;;;;;;3.92;2.70;;;;;;;5.68;100.00;100747.75;5018105;28;20551;-70
2022/04/18 02:44:45;;;;;;;2.80;2.45;;;;;;;5.67;100.00;100751.34;5018063;28;20103;-69
2022/04/18 02:47:29;;;;;;;5.70;3.35;;;;;;;5.69;100.00;100746.78;5033252;28;20048;-69
2022/04/18 02:50:13;;;;;;;5.35;3.20;;;;;;;5.69;100.00;100746.78;5033255;28;20076;-69
2022/04/18 02:52:57;;;;;;;3.33;2.88;;;;;;;5.72;100.00;100754.50;5017957;28;20091;-69
2022/04/18 02:55:41;;;;;;;6.78;3.05;;;;;;;5.45;100.00;100743.09;5033196;28;20048;-69
2022/04/18 02:58:25;;;;;;;4.45;3.05;;;;;;;5.34;100.00;100748.25;5018216;28;20053;-69
2022/04/18 03:01:09;;;;;;;5.15;3.05;;;;;;;5.30;100.00;100746.75;5017839;28;20550;-70
2022/04/18 03:03:53;;;;;;;3.97;2.97;;;;;;;5.04;100.00;100746.75;5018122;28;20052;-69
2022/04/18 03:06:37;;;;;;;5.57;3.28;;;;;;;5.00;100.00;100738.16;5033380;28;20512;-69
2022/04/18 03:09:20;;;;;;;6.57;3.20;;;;;;;5.02;100.00;100744.19;5017887;28;20103;-69
2022/04/18 03:12:06;;;;;;;6.28;3.28;;;;;;;5.02;100.00;100741.53;5032779;28;20528;-69
2022/04/18 03:14:50;;;;;;;4.93;3.10;;;;;;;4.99;100.00;100736.47;5018210;28;20072;-69
2022/04/18 03:17:34;;;;;;;4.75;2.90;;;;;;;5.00;100.00;100724.94;5033252;28;20052;-69
2022/04/18 03:20:17;;;;;;;4.05;2.80;;;;;;;5.01;100.00;100723.16;5018012;28;20064;-69
2022/04/18 03:23:01;;;;;;;6.18;3.40;;;;;;;5.08;100.00;100725.31;5017668;28;20048;-69
2022/04/18 03:25:45;;;;;;;7.68;3.45;;;;;;;5.17;100.00;100718.56;5032921;28;20088;-69
2022/04/18 03:28:32;;;;;;;3.90;3.00;;;;;;;5.23;100.00;100721.66;5018249;28;20524;-69
2022/04/18 03:31:16;;;;;;;6.43;3.75;;;;;;;5.27;100.00;100731.09;5004138;28;20524;-69
2022/04/18 03:34:00;;;;;;;5.43;3.17;;;;;;;5.21;100.00;100725.34;5032691;28;20175;-69
2022/04/18 03:39:53;;;;;;;5.88;3.25;;;;;;;5.24;100.00;100720.72;5036278;28;20048;-70
2022/04/18 03:42:37;;;;;;;5.38;3.40;;;;;;;5.29;100.00;100712.47;5035928;28;20437;-69
2022/04/18 03:45:21;;;;;;;4.88;3.38;;;;;;;5.28;100.00;100714.28;5021255;28;20084;-69
2022/04/18 03:48:05;;;;;;;13.45;3.75;;;;;;;5.32;100.00;100707.84;5036160;28;20467;-69
2022/04/18 03:50:49;;;;;;;5.57;3.22;;;;;;;5.35;100.00;100715.56;5035751;28;20048;-69
2022/04/18 03:53:33;;;;;;;4.78;3.67;;;;;;;5.34;100.00;100715.69;5007256;28;20099;-69
2022/04/18 03:56:17;;;;;;;8.65;3.78;;;;;;;5.23;100.00;100708.44;5021289;28;20044;-69
2022/04/18 03:59:01;;;;;;;7.97;3.75;;;;;;;5.19;100.00;100706.09;5020698;28;20164;-69
2022/04/18 04:01:45;;;;;;;4.88;3.20;;;;;;;5.22;100.00;100712.03;5020843;28;20100;-70
2022/04/18 04:04:29;;;;;;;4.57;3.60;;;;;;;5.25;100.00;100714.47;5020593;28;20052;-70
2022/04/18 04:07:13;;;;;;;6.50;4.22;;;;;;;5.25;100.00;100716.28;5020841;28;20051;-70
2022/04/18 04:09:57;;;;;;;6.40;3.97;;;;;;;5.21;100.00;100712.13;5035806;28;20175;-69
2022/04/18 04:12:41;;;;;;;5.55;3.97;;;;;;;5.17;100.00;100716.78;5020470;28;20417;-69
2022/04/18 04:15:25;;;;;;;8.00;3.95;;;;;;;5.09;100.00;100711.16;5035649;28;20106;-69
2022/04/18 04:18:09;;;;;;;;;;;;;;;5.02;100.00;100709.84;5035771;28;20102;-69
2022/04/18 04:20:53;;;;;;;5.88;3.72;;;;;;;5.03;100.00;100711.53;5020136;28;19955;-70
2022/04/18 04:23:37;;;;;;;6.63;4.03;;;;;;;5.03;100.00;100700.97;5020518;28;20043;-69
2022/04/18 04:26:21;;;;;;;5.82;3.58;;;;;;;5.03;100.00;100711.53;5035371;28;20052;-69
2022/04/18 04:29:05;;;;;;;4.95;3.45;;;;;;;5.04;100.00;100707.94;5035156;28;20095;-69
2022/04/18 04:31:49;;;;;;;4.70;3.35;;;;;;;5.07;100.00;100707.75;5020085;28;20535;-70
2022/04/18 04:34:32;;;;;;;4.93;3.90;;;;;;;5.04;100.00;100707.94;5035013;28;20175;-69
2022/04/18 04:37:17;;;;;;;6.15;3.88;;;;;;;4.96;100.00;100706.75;5020235;28;20052;-69
2022/04/18 04:40:01;;;;;;;6.47;4.00;;;;;;;4.89;100.00;100707.25;5020027;28;20099;-69
2022/04/18 04:42:45;;;;;;;4.88;3.85;;;;;;;4.82;100.00;100703.28;5035427;28;20500;-70
2022/04/18 04:45:30;;;;;;;6.78;3.92;;;;;;;4.85;100.00;100714.50;5020152;28;20056;-69
2022/04/18 04:48:13;;;;;;;5.43;3.58;;;;;;;4.85;100.00;100711.00;5019868;28;20067;-69
2022/04/18 04:50:57;;;;;;;;;;;;;;;4.83;100.00;100695.28;5020239;28;20460;-69
2022/04/18 04:53:41;;;;;;;5.00;3.45;;;;;;;4.89;100.00;100701.97;5020005;28;19920;-69
2022/04/18 04:56:25;;;;;;;5.22;3.30;;;;;;;4.88;100.00;100700.28;5019896;28;20080;-69
2022/04/18 04:59:09;;;;;;;6.78;4.03;;;;;;;4.84;100.00;100698.75;5019940;28;20100;-69
2022/04/18 05:01:53;;;;;;;6.28;4.10;;;;;;;4.76;100.00;100701.06;5019557;28;20095;-69
2022/04/18 05:04:37;;;;;;;7.82;3.88;;;;;;;4.74;100.00;100705.56;5019732;28;20132;-69
2022/04/18 05:07:21;;;;;;;5.30;3.80;;;;;;;4.83;100.00;100697.91;5005863;28;20064;-69
2022/04/18 05:10:06;;;;;;;5.90;3.75;;;;;;;4.92;100.00;100701.75;5019627;28;20127;-70
2022/04/18 05:12:50;;;;;;;8.07;4.15;;;;;;;4.93;100.00;100693.75;5034168;28;20070;-69
2022/04/18 05:15:34;;;;;;;5.35;3.33;;;;;;;4.97;100.00;100701.38;5005704;28;20110;-69
2022/04/18 05:18:18;;;;;;;5.35;4.30;;;;;;;4.92;100.00;100704.41;5034464;28;20051;-69
2022/04/18 05:21:02;;;;;;;5.55;3.83;;;;;;;4.90;100.00;100701.84;5019097;28;20051;-69
2022/04/18 05:23:46;;;;;;;5.22;3.88;;;;;;;4.93;100.00;100707.78;5019558;28;20120;-69
2022/04/18 05:26:30;;;;;;;7.35;3.97;;;;;;;4.93;100.00;100707.78;5034366;28;20065;-69
2022/04/18 05:29:14;;;;;;;;;;;;;;;5.00;100.00;100705.59;5019708;28;20111;-69
2022/04/18 05:31:58;;;;;;;7.13;4.07;;;;;;;5.01;100.00;100710.78;5019180;28;20285;-69
2022/04/18 05:34:43;;;;;;;5.63;3.70;;;;;;;5.06;100.00;100703.44;5019592;28;20475;-69
2022/04/18 05:37:27;;;;;;;5.70;3.90;;;;;;;5.12;100.00;100712.75;5019263;28;20500;-69
2022/04/18 05:40:11;;;;;;;6.07;4.10;;;;;;;5.24;100.00;100709.31;5034140;28;20056;-69
2022/04/18 05:42:55;;;;;;;13.20;4.05;;;;;;;5.37;100.00;100705.75;5004999;28;20056;-69
2022/04/18 05:45:39;;;;;;;6.93;4.18;;;;;;;5.41;100.00;100709.88;5019301;28;20048;-69
2022/04/18 05:48:23;;;;;;;6.00;4.15;;;;;;;5.56;100.00;100722.09;5018771;28;20052;-69
2022/04/18 05:51:08;;;;;;;5.63;3.80;;;;;;;5.68;100.00;100721.28;5018777;28;20182;-69
2022/04/18 05:53:52;;;;;;;4.85;3.95;;;;;;;5.80;100.00;100720.50;5033876;28;20516;-69
2022/04/18 05:56:36;;;;;;;6.03;3.97;;;;;;;5.90;100.00;100718.94;5004841;28;20091;-69
2022/04/18 05:59:20;;;;;;;7.10;4.60;;;;;;;6.05;100.00;100725.81;5018220;28;20095;-69
2022/04/18 06:02:04;;;;;;;8.30;4.57;;;;;;;6.20;100.00;100727.41;5018681;28;20052;-69
2022/04/18 06:04:48;;;;;;;6.85;4.82;;;;;;;6.33;100.00;100722.97;5033552;28;20049;-70
2022/04/18 06:07:35;;;;;;;9.55;4.75;;;;;;;6.43;100.00;100721.38;5018942;28;20513;-69
2022/04/18 06:10:19;;;;;;;6.90;4.53;;;;;;;6.58;100.00;100724.75;5018439;28;20107;-69
2022/04/18 06:13:04;;;;;;;6.07;4.25;;;;;;;6.66;100.00;100715.28;5005166;28;20044;-69
2022/04/18 06:15:52;;;;;;;7.93;4.72;;;;;;;6.80;100.00;100720.47;5018433;28;20128;-69
2022/04/18 06:18:36;;;;;;;6.85;4.70;;;;;;;6.97;100.00;100716.59;5004973;28;20056;-69
2022/04/18 06:21:20;;;;;;;4.47;3.65;;;;;;;7.09;100.00;100711.22;5018202;28;20056;-69
2022/04/18 06:24:04;;;;;;;6.53;4.60;;;;;;;7.16;100.00;100709.84;5033742;28;20548;-69
2022/04/18 06:26:48;;;;;;;5.72;4.18;;;;;;;7.26;100.00;100713.50;5018584;28;20111;-69
2022/04/18 06:29:32;;;;;;;7.00;4.30;;;;;;;7.34;95.23;100716.44;5018277;28;20056;-69
2022/04/18 06:32:16;;;;;;;6.63;4.93;;;;;;;7.56;94.61;100705.94;5018367;28;20099;-69
2022/04/18 06:35:00;;;;;;;6.68;3.90;;;;;;;7.65;93.26;100710.56;5018417;28;20056;-69
2022/04/18 06:37:44;;;;;;;6.65;3.90;;;;;;;7.78;86.46;100706.88;5018227;28;20138;-69
2022/04/18 06:40:28;;;;;;;7.32;4.35;;;;;;;7.93;80.64;100710.16;5018642;28;20044;-69
2022/04/18 06:43:12;;;;;;;5.38;3.92;;;;;;;8.18;79.09;100699.34;5004565;28;20075;-69
2022/04/18 06:45:56;;;;;;;6.40;4.32;;;;;;;8.45;76.95;100702.53;5004125;28;20044;-69
2022/04/18 06:48:39;;;;;;;7.18;3.90;;;;;;;8.54;74.50;100697.34;5033050;28;20136;-69
2022/04/18 06:51:23;;;;;;;6.60;4.40;;;;;;;8.67;78.58;100700.72;5017893;28;20049;-69
2022/04/18 06:54:07;;;;;;;8.52;4.25;;;;;;;8.78;74.54;100700.69;5033117;28;20408;-69
2022/04/18 06:57:01;;;;;;;15.85;8.07;;;;;;;8.85;69.46;100696.59;5018237;28;20056;-69
2022/04/18 06:59:46;;;;;;;58.77;36.70;;;;;;;8.92;69.84;100703.13;5019326;28;20436;-69
2022/04/18 07:02:30;;;;;;;14.13;10.30;;;;;;;8.93;71.21;100696.81;5017817;28;20100;-69
2022/04/18 07:05:14;;;;;;;7.60;6.75;;;;;;;8.99;69.80;100698.16;5018148;28;20566;-69
2022/04/18 07:07:58;;;;;;;12.98;7.63;;;;;;;9.06;68.98;100696.69;5033079;28;20052;-69
2022/04/18 07:10:42;;;;;;;8.40;5.22;;;;;;;9.07;67.48;100685.91;5033838;28;20515;-69
2022/04/18 07:13:26;;;;;;;26.35;15.45;;;;;;;9.34;65.85;100698.75;5036548;28;20559;-69
2022/04/18 07:16:09;;;;;;;23.73;15.73;;;;;;;9.52;69.38;100691.94;5021524;28;20048;-69
2022/04/18 07:18:54;;;;;;;13.55;9.05;;;;;;;9.60;64.48;100694.81;5036580;28;20052;-69
2022/04/18 07:21:38;;;;;;;26.55;18.85;;;;;;;9.83;63.13;100697.25;5057728;22;20513;-70
2022/04/18 07:24:23;;;;;;;19.85;13.38;;;;;;;9.97;63.01;100696.06;5007784;28;20091;-70
2022/04/18 07:27:07;;;;;;;17.55;8.73;;;;;;;10.02;60.82;100693.84;5021562;28;20099;-69
2022/04/18 07:29:51;;;;;;;19.75;12.02;;;;;;;10.15;61.58;100691.84;5036799;28;20628;-69
2022/04/18 07:32:41;;;;;;;15.80;11.50;;;;;;;10.20;58.14;100684.34;5021019;28;20052;-69
2022/04/18 07:35:25;;;;;;;17.40;11.73;;;;;;;10.24;58.80;100681.28;5036402;28;20065;-70
2022/04/18 07:41:20;;;;;;;20.95;13.25;;;;;;;10.39;60.96;100686.13;5023960;28;20103;-70
2022/04/18 07:44:04;;;;;;;22.05;12.93;;;;;;;10.57;59.83;100689.81;5035967;28;20064;-70
2022/04/18 07:46:49;;;;;;;8.55;4.82;;;;;;;10.64;56.91;100684.81;5036152;28;20172;-69
2022/04/18 07:49:33;;;;;;;13.18;8.40;;;;;;;10.71;57.54;100686.81;5021190;28;20044;-69
2022/04/18 07:52:17;;;;;;;16.73;11.50;;;;;;;10.76;56.57;100697.06;5035490;28;20131;-69
2022/04/18 07:55:01;;;;;;;7.28;5.20;;;;;;;10.85;55.59;100691.75;5035809;28;20516;-70
2022/04/18 07:57:44;;;;;;;22.92;13.68;;;;;;;10.86;55.23;100690.78;5006886;28;20068;-70
2022/04/18 08:00:28;;;;;;;58.65;35.15;;;;;;;11.02;56.21;100693.78;5035677;28;20099;-70
2022/04/18 08:03:12;;;;;;;24.35;15.30;;;;;;;11.08;56.72;100695.88;5035857;28;20068;-70
2022/04/18 08:06:00;;;;;;;10.65;4.63;;;;;;;11.13;54.76;100698.16;5020727;28;20049;-70
2022/04/18 08:08:43;;;;;;;40.83;26.77;;;;;;;11.23;54.82;100691.84;5021084;28;20147;-70
2022/04/18 08:11:27;;;;;;;27.55;18.10;;;;;;;11.33;53.77;100695.38;5020643;28;20053;-70
2022/04/18 08:14:11;;;;;;;24.40;14.77;;;;;;;11.45;52.89;100694.28;5020718;28;20421;-70
2022/04/18 08:16:55;;;;;;;8.70;5.25;;;;;;;11.37;52.57;100685.28;5020869;28;20107;-70
2022/04/18 08:19:40;;;;;;;13.05;8.45;;;;;;;11.41;54.12;100692.88;5020647;28;20508;-70
2022/04/18 08:22:24;;;;;;;9.07;4.97;;;;;;;11.41;53.54;100698.22;5034448;28;20044;-71
2022/04/18 08:25:08;;;;;;;12.85;8.23;;;;;;;11.54;53.99;100696.09;5020346;28;20095;-70
2022/04/18 08:27:52;;;;;;;9.02;5.40;;;;;;;11.63;53.48;100692.63;5020200;28;20142;-70
2022/04/18 08:30:36;;;;;;;10.95;5.70;;;;;;;11.80;51.82;100688.41;5035393;28;20107;-70
2022/04/18 08:33:21;;;;;;;15.27;8.35;;;;;;;11.88;51.96;100697.38;5020042;28;20052;-70
2022/04/18 08:36:05;;;;;;;9.35;5.72;;;;;;;11.98;52.59;100702.72;5020603;28;20091;-70
2022/04/18 08:38:49;;;;;;;8.13;5.38;;;;;;;12.06;50.72;100695.69;5020011;28;20064;-69
2022/04/18 08:41:37;;;;;;;10.93;5.18;;;;;;;12.17;51.98;100692.84;5020354;28;20104;-71
2022/04/18 08:44:21;;;;;;;7.50;4.38;;;;;;;12.23;51.08;100689.59;5019924;28;20420;-71
2022/04/18 08:47:05;;;;;;;8.80;5.45;;;;;;;12.34;50.05;100694.78;5020098;28;20056;-70
2022/04/18 08:52:52;;;;;;;9.82;4.43;;;;;;;12.69;49.73;100689.56;5022253;28;20068;-70
2022/04/18 08:55:36;;;;;;;7.15;3.55;;;;;;;12.77;48.53;100694.16;5005826;28;20048;-70
2022/04/18 08:58:22;;;;;;;12.70;5.65;;;;;;;12.97;49.54;100683.28;5019631;28;20044;-71
2022/04/18 09:01:07;;;;;;;10.13;4.75;;;;;;;13.10;48.47;100684.59;5019539;28;20048;-70
2022/04/18 09:03:51;;;;;;;6.47;3.50;;;;;;;13.15;47.44;100682.31;5034496;28;20095;-70
2022/04/18 09:06:38;;;;;;;9.15;3.70;;;;;;;13.28;46.28;100679.28;5020029;28;20103;-69
2022/04/18 09:09:28;;;;;;;6.72;4.35;;;;;;;13.48;47.79;100678.97;5019580;28;20051;-68
2022/04/18 09:12:24;;;;;;;4.18;3.28;;;;;;;13.54;46.63;100682.88;5005460;28;20413;-70
2022/04/18 09:15:09;;;;;;;8.20;4.18;;;;;;;13.71;46.36;100682.03;5019550;28;20044;-70
2022/04/18 09:17:53;;;;;;;5.07;3.40;;;;;;;13.91;46.93;100680.84;5019557;28;20083;-70
2022/04/18 09:20:45;;;;;;;5.78;3.97;;;;;;;14.06;48.24;100679.31;5034471;28;20421;-70
2022/04/18 09:23:30;;;;;;;5.68;3.55;;;;;;;14.23;46.17;100673.09;5019426;28;20140;-70
2022/04/18 09:26:16;;;;;;;6.60;4.03;;;;;;;14.42;45.55;100678.22;5019111;28;20052;-71
2022/04/18 09:29:04;;;;;;;5.40;3.40;;;;;;;14.57;45.18;100673.97;5034234;28;20052;-70
2022/04/18 09:31:52;;;;;;;5.50;3.33;;;;;;;14.77;43.42;100662.81;5018886;28;20055;-70
2022/04/18 09:34:37;;;;;;;4.75;3.17;;;;;;;14.92;44.61;100663.06;5018276;28;20088;-70
2022/04/18 09:37:21;;;;;;;5.70;4.13;;;;;;;14.84;43.91;100666.56;5034008;28;20156;-70
2022/04/18 09:40:06;;;;;;;5.35;3.47;;;;;;;15.11;45.02;100662.78;5034044;28;20052;-70
2022/04/18 09:42:53;;;;;;;4.43;3.55;;;;;;;15.53;42.46;100666.25;5018797;28;20417;-70
2022/04/18 09:45:37;;;;;;;7.50;3.63;;;;;;;15.78;41.99;100658.88;5033662;28;20053;-70
2022/04/18 09:48:21;;;;;;;8.30;3.22;;;;;;;15.91;41.98;100653.84;5033659;28;20090;-70
2022/04/18 09:51:08;;;;;;;4.47;3.00;;;;;;;16.81;40.09;100648.97;5018626;28;20421;-71
2022/04/18 09:53:53;;;;;;;4.80;3.25;;;;;;;18.20;35.37;100631.44;5033859;28;20056;-71
2022/04/18 09:56:47;;;;;;;5.20;3.35;;;;;;;-139.48;100.00;61774.03;5033461;28;20048;-70
2022/04/18 09:59:31;;;;;;;7.97;3.75;;;;;;;-139.48;100.00;61774.03;5018846;28;20041;-71
2022/04/18 10:02:15;;;;;;;5.10;3.70;;;;;;;18.20;35.37;100631.44;5033342;28;20136;-70
2022/04/18 10:05:01;;;;;;;3.80;3.40;;;;;;;23.81;28.27;100641.75;5033619;28;20098;-68
2022/04/18 10:07:47;;;;;;;4.22;3.40;;;;;;;23.91;26.84;100636.69;5018921;28;20048;-70
2022/04/18 10:10:36;;;;;;;6.18;3.45;;;;;;;23.91;26.84;100636.69;5018641;28;20457;-70
2022/04/18 10:13:21;;;;;;;5.85;4.10;;;;;;;26.40;23.04;100629.53;5018298;28;20053;-70
2022/04/18 10:16:06;;;;;;;4.05;3.35;;;;;;;26.30;24.12;100625.72;5033295;28;20048;-70
2022/04/18 10:18:54;;;;;;;5.55;3.95;;;;;;;25.54;23.74;100622.94;5004450;28;20045;-70
2022/04/18 10:21:40;;;;;;;7.45;4.13;;;;;;;25.31;23.96;100620.13;5004207;28;20057;-70
2022/04/18 10:24:49;;;;;;;3.90;3.08;;;;;;;26.66;23.95;100620.03;5018480;28;20048;-70
2022/04/18 10:27:40;;;;;;;4.63;3.30;;;;;;;26.72;24.04;100608.97;5018621;28;20127;-70
2022/04/18 10:30:25;;;;;;;4.38;3.45;;;;;;;26.89;22.41;100606.31;5018194;28;20094;-71
2022/04/18 10:33:12;;;;;;;4.25;3.45;;;;;;;26.33;22.82;100597.94;5018130;28;20048;-71
2022/04/18 10:36:07;;;;;;;5.75;4.03;;;;;;;26.27;23.58;100594.25;5004772;28;20052;-70
2022/04/18 10:38:51;;;;;;;5.57;3.70;;;;;;;28.17;21.83;100596.19;5018272;28;20125;-71
2022/04/18 10:41:37;;;;;;;4.63;3.42;;;;;;;26.68;23.70;100590.53;5032947;28;20049;-71
2022/04/18 10:44:32;;;;;;;4.68;3.60;;;;;;;26.68;23.70;100590.53;5004549;28;20409;-71
2022/04/18 10:47:15;;;;;;;4.00;3.60;;;;;;;28.22;21.32;100579.78;5022241;28;20091;-70
2022/04/18 10:50:18;;;;;;;3.65;3.20;;;;;;;28.29;22.13;100579.63;5022537;28;20114;-70
2022/04/18 10:53:14;;;;;;;4.68;3.90;;;;;;;29.84;20.13;100576.91;5021783;28;20056;-70
2022/04/18 10:55:58;;;;;;;4.00;3.60;;;;;;;30.55;19.22;100574.41;5022074;28;20056;-70
2022/04/18 10:58:43;;;;;;;4.53;3.78;;;;;;;29.48;20.04;100576.81;5022083;28;20052;-70
2022/04/18 11:01:37;;;;;;;4.93;3.42;;;;;;;30.02;20.00;100576.50;5036664;28;20124;-70
2022/04/18 11:04:33;;;;;;;6.00;5.35;;;;;;;-139.48;100.00;61774.03;5037019;28;20106;-69
2022/04/18 11:07:17;;;;;;;4.45;3.72;;;;;;;-139.48;100.00;61774.03;5036591;28;20087;-70
2022/04/18 11:10:02;;;;;;;4.57;3.50;;;;;;;-139.48;100.00;61774.03;5021884;28;20421;-70
2022/04/18 11:12:46;;;;;;;4.50;3.28;;;;;;;-139.48;100.00;61774.03;5021496;28;20049;-71
2022/04/18 11:15:30;;;;;;;3.47;3.15;;;;;;;30.02;20.00;100576.50;5036505;28;20088;-70
2022/04/18 11:18:28;;;;;;;3.70;3.20;;;;;;;31.70;18.26;100551.97;5021990;28;20448;-70
2022/04/18 11:21:12;;;;;;;6.35;3.85;;;;;;;29.58;19.63;100549.47;5021308;28;20064;-70
2022/04/18 11:24:37;;;;;;;5.28;3.50;;;;;;;30.59;18.40;100548.03;5021588;28;20084;-71
2022/04/18 11:27:23;;;;;;;5.28;3.90;;;;;;;31.56;17.96;100540.63;5036282;28;20071;-70
2022/04/18 11:30:18;;;;;;;4.55;3.80;;;;;;;32.12;16.91;100534.03;5007339;28;20071;-70
2022/04/18 11:33:03;;;;;;;4.07;3.38;;;;;;;31.88;18.38;100532.94;5007410;28;20053;-70
2022/04/18 11:35:51;;;;;;;4.95;3.30;;;;;;;31.41;18.16;100532.38;5021808;28;20562;-70
2022/04/18 11:38:36;;;;;;;5.63;3.53;;;;;;;31.77;18.22;100538.75;5021325;28;20052;-70
2022/04/18 11:41:20;;;;;;;6.30;4.30;;;;;;;32.39;17.85;100528.22;5020750;28;20056;-70
2022/04/18 11:44:04;;;;;;;4.47;3.58;;;;;;;32.39;17.85;100528.22;5006968;28;20555;-70
2022/04/18 11:46:48;;;;;;;4.45;3.88;;;;;;;32.50;17.28;100513.28;5020967;28;20049;-70
2022/04/18 11:49:33;;;;;;;4.78;3.83;;;;;;;31.85;17.50;100513.41;5007503;28;20468;-69
2022/04/18 11:52:18;;;;;;;4.78;3.92;;;;;;;31.68;17.91;100516.41;5020998;28;20048;-69
2022/04/18 11:55:05;;;;;;;4.78;4.22;;;;;;;31.52;18.40;100500.13;5036069;28;20501;-70
2022/04/18 11:57:49;;;;;;;4.70;3.75;;;;;;;33.25;16.84;100513.78;5034981;28;20052;-70
2022/04/18 12:06:49;;;;;;;4.13;3.72;;;;;;;30.83;19.77;100493.38;5023404;28;20048;-70
2022/04/18 12:09:33;;;;;;;5.43;3.60;;;;;;;33.33;16.55;100502.94;5021739;28;20065;-70
2022/04/18 12:12:30;;;;;;;5.88;4.07;;;;;;;34.94;15.47;100489.13;5020666;28;20095;-70
2022/04/18 12:15:14;;;;;;;5.00;3.63;;;;;;;34.94;15.43;100489.13;5020520;28;20107;-70
2022/04/18 12:18:10;;;;;;;5.18;3.40;;;;;;;34.89;15.18;100486.44;5006765;28;20167;-70
2022/04/18 12:20:55;;;;;;;4.38;3.90;;;;;;;33.45;16.54;100480.47;5020720;28;20628;-69
2022/04/18 12:23:39;;;;;;;5.35;4.30;;;;;;;32.43;17.33;100474.94;5035530;28;20087;-70
2022/04/18 12:26:28;;;;;;;6.60;4.13;;;;;;;31.70;18.10;100477.56;5035487;28;20123;-69
2022/04/18 12:29:13;;;;;;;6.95;4.57;;;;;;;33.65;16.37;100469.25;5020211;28;20067;-70
2022/04/18 12:31:59;;;;;;;5.95;4.22;;;;;;;32.72;16.83;100458.56;5006595;28;20043;-70
2022/04/18 12:34:43;;;;;;;6.93;4.00;;;;;;;32.20;18.07;100459.03;5035340;28;20550;-70
2022/04/18 12:37:27;;;;;;;6.82;4.35;;;;;;;31.67;18.10;100459.63;5035023;28;20107;-70
2022/04/18 12:40:15;;;;;;;8.15;3.90;;;;;;;31.38;18.79;100463.19;5020090;28;20079;-69
2022/04/18 12:43:04;;;;;;;4.35;3.47;;;;;;;30.68;18.89;100452.88;5019890;28;20416;-70
2022/04/18 12:45:56;;;;;;;4.70;3.83;;;;;;;29.43;19.86;100453.97;5020265;28;20080;-70
2022/04/18 12:48:49;;;;;;;4.38;3.80;;;;;;;30.63;18.63;100452.84;5020106;28;20052;-70
2022/04/18 12:51:35;;;;;;;4.53;3.90;;;;;;;30.87;19.10;100443.00;5005843;28;20052;-70
2022/04/18 12:54:20;;;;;;;6.45;4.22;;;;;;;31.52;18.41;100434.81;5019948;28;20091;-69
2022/04/18 12:57:04;;;;;;;4.43;3.97;;;;;;;30.37;20.06;100439.22;5019663;28;20052;-70
2022/04/18 12:59:48;;;;;;;4.68;4.07;;;;;;;29.96;20.28;100445.59;5034749;28;20048;-70
2022/04/18 13:02:32;;;;;;;5.10;4.53;;;;;;;29.96;19.08;100426.34;5034479;28;20095;-69
2022/04/18 13:05:29;;;;;;;4.35;3.95;;;;;;;29.55;19.95;100432.66;5034802;28;20136;-70
2022/04/18 13:08:16;;;;;;;6.07;3.90;;;;;;;30.65;20.16;100425.06;5019265;28;20476;-70
2022/04/18 13:11:00;;;;;;;5.93;4.05;;;;;;;29.78;20.10;100426.78;5034390;28;20052;-70